Time;durP1;ratioP1;P1;durP2;ratioP2;P2;SDS_P1;SDS_P2;PMS_P1;PMS_P2;Temp;Humidity;BMP_temperature;BMP_pressure;BME280_temperature;BME280_humidity;BME280_pressure;Samples;Min_cycle;Max_cycle;Signal;HPM_P1;HPM_P2
2023/10/08 00:01:06;;;;;;;10.50;7.50;;;;;;;;;;5054089;28;20045;-71
2023/10/08 00:03:33;;;;;;;13.50;8.02;;;;;;;;;;5053952;28;20516;-71
2023/10/08 00:06:06;;;;;;;11.32;7.15;;;;;;;;;;5054094;28;20473;-71
2023/10/08 00:08:33;;;;;;;12.32;7.45;;;;;;;;;;5053908;28;20049;-72
2023/10/08 00:11:05;;;;;;;10.45;7.10;;;;;;;;;;5053868;28;20044;-71
2023/10/08 00:13:35;;;;;;;;;;;;;;;;;;5054063;28;20263;-71
2023/10/08 00:16:09;;;;;;;12.27;7.07;;;;;;;;;;5052083;28;19987;-71
2023/10/08 00:18:36;;;;;;;12.13;7.30;;;;;;;;;;5053801;28;20056;-71
2023/10/08 00:21:16;;;;;;;11.50;7.18;;;;;;;;;;5052613;28;20103;-71
2023/10/08 00:23:43;;;;;;;12.32;7.32;;;;;;;;;;5053684;28;20455;-71
2023/10/08 00:26:10;;;;;;;13.90;8.15;;;;;;;;;;5053463;28;20057;-71
2023/10/08 00:28:37;;;;;;;14.73;7.80;;;;;;;;;;5053166;28;20041;-71
2023/10/08 00:31:12;;;;;;;13.82;8.63;;;;;;;;;;5053532;28;20091;-71
2023/10/08 00:33:39;;;;;;;14.35;8.77;;;;;;;;;;5053386;28;20124;-71
2023/10/08 00:36:17;;;;;;;18.10;8.45;;;;;;;;;;5052772;28;20056;-71
2023/10/08 00:38:44;;;;;;;18.25;8.75;;;;;;;;;;5053020;28;20064;-71
2023/10/08 00:41:14;;;;;;;15.23;8.85;;;;;;;;;;5053531;28;20131;-71
2023/10/08 00:43:42;;;;;;;14.80;8.82;;;;;;;;;;5053804;28;20410;-71
2023/10/08 00:46:19;;;;;;;15.90;8.65;;;;;;;;;;5053063;28;20060;-71
2023/10/08 00:48:47;;;;;;;14.38;8.52;;;;;;;;;;5053035;28;20107;-71
2023/10/08 00:51:25;;;;;;;16.75;8.10;;;;;;;;;;5053052;28;20052;-71
2023/10/08 00:53:57;;;;;;;15.02;8.70;;;;;;;;;;5052951;28;20056;-71
2023/10/08 00:56:25;;;;;;;15.15;8.60;;;;;;;;;;5053160;28;20112;-71
2023/10/08 00:58:54;;;;;;;17.75;8.80;;;;;;;;;;5052530;28;20424;-71
2023/10/08 01:01:22;;;;;;;14.95;8.35;;;;;;;;;;5053068;28;20063;-71
2023/10/08 01:03:49;;;;;;;15.68;8.70;;;;;;;;;;5052351;28;20045;-70
2023/10/08 01:06:19;;;;;;;15.80;9.10;;;;;;;;;;5052795;28;20132;-71
2023/10/08 01:08:52;;;;;;;16.17;8.50;;;;;;;;;;5052550;28;20041;-71
2023/10/08 01:11:21;;;;;;;13.43;8.10;;;;;;;;;;5052961;28;20475;-71
2023/10/08 01:13:49;;;;;;;12.80;8.52;;;;;;;;;;5052091;28;20099;-71
2023/10/08 01:16:17;;;;;;;15.65;8.15;;;;;;;;;;5052241;28;20389;-71
2023/10/08 01:18:50;;;;;;;13.73;8.13;;;;;;;;;;5052189;28;20057;-71
2023/10/08 01:21:33;;;;;;;13.45;7.93;;;;;;;;;;5052261;28;20079;-71
2023/10/08 01:24:02;;;;;;;13.27;7.78;;;;;;;;;;5051963;28;20041;-71
2023/10/08 01:26:31;;;;;;;16.00;8.02;;;;;;;;;;5052375;28;20049;-70
2023/10/08 01:29:02;;;;;;;13.63;8.18;;;;;;;;;;5051689;28;20094;-71
2023/10/08 01:31:28;;;;;;;10.38;6.90;;;;;;;;;;5052697;28;20045;-71
2023/10/08 01:33:56;;;;;;;10.23;7.15;;;;;;;;;;5051975;28;20049;-71
2023/10/08 01:36:23;;;;;;;14.70;7.78;;;;;;;;;;5052038;28;20059;-71
2023/10/08 01:38:50;;;;;;;13.88;7.65;;;;;;;;;;5051789;28;20052;-71
2023/10/08 01:41:29;;;;;;;13.02;7.60;;;;;;;;;;5051886;28;20055;-71
2023/10/08 01:43:55;;;;;;;11.13;7.22;;;;;;;;;;5051593;28;20137;-71
2023/10/08 01:46:22;;;;;;;10.10;7.03;;;;;;;;;;5052192;28;20055;-71
2023/10/08 01:48:53;;;;;;;12.25;7.63;;;;;;;;;;5050643;28;20041;-71
2023/10/08 01:51:24;;;;;;;11.98;7.15;;;;;;;;;;5052202;28;20508;-70
2023/10/08 01:53:51;;;;;;;15.90;7.53;;;;;;;;;;5051421;28;20049;-71
2023/10/08 01:56:19;;;;;;;15.73;8.05;;;;;;;;;;5052014;28;20056;-71
2023/10/08 01:58:46;;;;;;;14.40;7.43;;;;;;;;;;5051934;28;20408;-71
2023/10/08 02:01:13;;;;;;;13.23;8.18;;;;;;;;;;5051065;28;20045;-71
2023/10/08 02:03:41;;;;;;;13.98;7.40;;;;;;;;;;5051770;28;20635;-70
2023/10/08 02:06:08;;;;;;;11.90;7.45;;;;;;;;;;5051659;28;20059;-71
2023/10/08 02:08:36;;;;;;;14.48;8.35;;;;;;;;;;5051318;28;20048;-71
2023/10/08 02:11:03;;;;;;;17.40;7.75;;;;;;;;;;5051704;28;20051;-71
2023/10/08 02:13:31;;;;;;;12.95;8.00;;;;;;;;;;5051486;28;20515;-71
2023/10/08 02:15:58;;;;;;;14.38;8.05;;;;;;;;;;5051104;28;20056;-71
2023/10/08 02:18:25;;;;;;;10.48;7.28;;;;;;;;;;5051125;28;20052;-71
2023/10/08 02:20:52;;;;;;;13.55;7.22;;;;;;;;;;5051113;28;20071;-71
2023/10/08 02:23:19;;;;;;;12.98;6.82;;;;;;;;;;5051424;28;20132;-71
2023/10/08 02:25:46;;;;;;;15.30;7.78;;;;;;;;;;5051342;28;20067;-71
2023/10/08 02:28:15;;;;;;;12.18;7.32;;;;;;;;;;5050971;28;20424;-71
2023/10/08 02:30:43;;;;;;;12.13;7.47;;;;;;;;;;5051099;28;20131;-71
2023/10/08 02:33:13;;;;;;;10.77;6.55;;;;;;;;;;5050859;28;20041;-71
2023/10/08 02:35:42;;;;;;;11.82;7.13;;;;;;;;;;5051066;28;20053;-71
2023/10/08 02:38:09;;;;;;;10.88;7.05;;;;;;;;;;5050778;28;20186;-71
2023/10/08 02:40:44;;;;;;;11.18;7.05;;;;;;;;;;5051408;28;20420;-71
2023/10/08 02:43:11;;;;;;;10.82;6.68;;;;;;;;;;5050854;28;20521;-71
2023/10/08 02:45:39;;;;;;;10.35;6.47;;;;;;;;;;5051086;28;20045;-71
2023/10/08 02:48:11;;;;;;;11.82;6.68;;;;;;;;;;5050376;28;20045;-71
2023/10/08 02:50:39;;;;;;;10.60;6.90;;;;;;;;;;5051290;28;20049;-71
2023/10/08 02:53:10;;;;;;;11.55;7.20;;;;;;;;;;5050713;28;20060;-71
2023/10/08 02:55:38;;;;;;;10.95;6.60;;;;;;;;;;5051143;28;20076;-71
2023/10/08 02:58:10;;;;;;;9.32;6.13;;;;;;;;;;5049723;28;20048;-71
2023/10/08 03:00:40;;;;;;;8.90;5.90;;;;;;;;;;5051084;28;20053;-70
2023/10/08 03:03:15;;;;;;;10.88;6.70;;;;;;;;;;5050961;28;20056;-71
2023/10/08 03:05:43;;;;;;;11.88;6.53;;;;;;;;;;5050973;28;20501;-70
2023/10/08 03:08:11;;;;;;;11.95;6.32;;;;;;;;;;5050501;28;20076;-71
2023/10/08 03:10:38;;;;;;;9.88;5.82;;;;;;;;;;5051437;28;20044;-71
2023/10/08 03:13:06;;;;;;;11.55;5.82;;;;;;;;;;5050120;28;20056;-71
2023/10/08 03:15:46;;;;;;;11.00;6.10;;;;;;;;;;5050988;28;20053;-71
2023/10/08 03:18:15;;;;;;;9.20;5.97;;;;;;;;;;5050535;28;20045;-71
2023/10/08 03:20:45;;;;;;;11.57;6.22;;;;;;;;;;5050762;28;20199;-71
2023/10/08 03:23:22;;;;;;;11.02;5.80;;;;;;;;;;5050402;28;20045;-71
2023/10/08 03:25:56;;;;;;;8.27;5.63;;;;;;;;;;5050776;28;20111;-71
2023/10/08 03:28:24;;;;;;;10.75;5.95;;;;;;;;;;5045061;28;20421;-70
2023/10/08 03:30:56;;;;;;;8.77;5.50;;;;;;;;;;5050548;28;20443;-70
2023/10/08 03:33:24;;;;;;;10.02;5.93;;;;;;;;;;5045036;28;20110;-70
2023/10/08 03:35:52;;;;;;;11.05;6.07;;;;;;;;;;5050436;28;20045;-70
2023/10/08 03:38:27;;;;;;;10.32;6.18;;;;;;;;;;5050127;28;20433;-70
2023/10/08 03:40:57;;;;;;;10.38;6.28;;;;;;;;;;5050413;28;20056;-70
2023/10/08 03:43:33;;;;;;;9.43;5.72;;;;;;;;;;5045136;28;20088;-70
2023/10/08 03:46:05;;;;;;;9.95;6.20;;;;;;;;;;5050032;28;20055;-70
2023/10/08 03:48:38;;;;;;;12.10;5.75;;;;;;;;;;5049945;28;20045;-70
2023/10/08 03:51:11;;;;;;;7.93;5.40;;;;;;;;;;5049432;28;20451;-70
2023/10/08 03:53:52;;;;;;;;;;;;;;;;;;5050945;28;20529;-70
2023/10/08 03:56:24;;;;;;;6.95;5.68;;;;;;;;;;5050207;28;19921;-70
2023/10/08 03:58:53;;;;;;;7.53;5.35;;;;;;;;;;5049556;28;20049;-70
2023/10/08 04:01:21;;;;;;;12.43;6.43;;;;;;;;;;5050567;28;20047;-70
2023/10/08 04:03:58;;;;;;;10.50;6.25;;;;;;;;;;5050105;28;20073;-70
2023/10/08 04:06:30;;;;;;;9.80;6.00;;;;;;;;;;5050361;28;20559;-70
2023/10/08 04:09:11;;;;;;;10.20;6.45;;;;;;;;;;5049689;28;20502;-70
2023/10/08 04:11:51;;;;;;;11.93;6.35;;;;;;;;;;5051816;28;20136;-70
2023/10/08 04:14:19;;;;;;;11.90;7.10;;;;;;;;;;5053473;28;20111;-70
2023/10/08 04:16:46;;;;;;;10.82;6.50;;;;;;;;;;5054136;28;20481;-70
2023/10/08 04:19:18;;;;;;;11.00;6.38;;;;;;;;;;5053348;28;20441;-70
2023/10/08 04:21:44;;;;;;;11.07;6.88;;;;;;;;;;5053445;28;20420;-70
2023/10/08 04:24:14;;;;;;;10.18;6.10;;;;;;;;;;5053534;28;20047;-70
2023/10/08 04:26:42;;;;;;;9.93;6.75;;;;;;;;;;5053984;28;20048;-70
2023/10/08 04:29:09;;;;;;;10.40;6.72;;;;;;;;;;5053322;28;20048;-70
2023/10/08 04:31:38;;;;;;;10.77;6.75;;;;;;;;;;5053596;28;20561;-70
2023/10/08 04:34:09;;;;;;;10.70;6.63;;;;;;;;;;5053099;28;20501;-70
2023/10/08 04:36:39;;;;;;;8.30;6.13;;;;;;;;;;5053727;28;20052;-70
2023/10/08 04:39:13;;;;;;;13.20;6.57;;;;;;;;;;5053112;28;20485;-70
2023/10/08 04:41:42;;;;;;;9.93;6.47;;;;;;;;;;5053420;28;20049;-70
2023/10/08 04:44:14;;;;;;;10.80;6.57;;;;;;;;;;5052893;28;20045;-70
2023/10/08 04:46:47;;;;;;;10.27;6.22;;;;;;;;;;5053098;28;20523;-70
2023/10/08 04:49:26;;;;;;;9.57;6.43;;;;;;;;;;5052970;28;20413;-70
2023/10/08 04:51:56;;;;;;;14.70;6.57;;;;;;;;;;5053157;28;20486;-70
2023/10/08 04:54:24;;;;;;;12.70;6.55;;;;;;;;;;5047611;28;20099;-70
2023/10/08 04:56:53;;;;;;;10.93;6.55;;;;;;;;;;5052806;28;20049;-70
2023/10/08 04:59:22;;;;;;;10.98;6.32;;;;;;;;;;5052339;28;20049;-70
2023/10/08 05:02:12;;;;;;;10.52;6.68;;;;;;;;;;5053010;28;20049;-70
2023/10/08 05:04:46;;;;;;;10.07;6.22;;;;;;;;;;5049109;28;20456;-70
2023/10/08 05:07:40;;;;;;;13.10;6.57;;;;;;;;;;5052488;28;20161;-70
2023/10/08 05:10:32;;;;;;;11.70;6.35;;;;;;;;;;5051945;28;20041;-70
2023/10/08 05:13:15;;;;;;;11.13;6.25;;;;;;;;;;5052362;28;20053;-70
2023/10/08 05:15:47;;;;;;;13.90;6.28;;;;;;;;;;5052584;28;20052;-70
2023/10/08 05:18:23;;;;;;;10.82;6.82;;;;;;;;;;5051425;28;20414;-70
2023/10/08 05:21:14;;;;;;;12.55;7.05;;;;;;;;;;5052739;28;20489;-70
2023/10/08 05:24:08;;;;;;;10.82;6.32;;;;;;;;;;5049229;28;20132;-70
2023/10/08 05:26:49;;;;;;;9.07;6.13;;;;;;;;;;5048650;28;20088;-70
2023/10/08 05:29:52;;;;;;;8.95;6.13;;;;;;;;;;5052120;28;20053;-70
2023/10/08 05:32:37;;;;;;;11.55;5.80;;;;;;;;;;5052056;28;20134;-70
2023/10/08 05:37:52;;;;;;;10.18;5.93;;;;;;;;;;5051489;28;20059;-70
2023/10/08 05:40:43;;;;;;;8.48;5.97;;;;;;;;;;5052411;28;20063;-70
2023/10/08 05:43:22;;;;;;;12.93;6.35;;;;;;;;;;5051028;28;20057;-70
2023/10/08 05:45:52;;;;;;;11.23;6.25;;;;;;;;;;5052184;28;20045;-70
2023/10/08 05:48:27;;;;;;;12.73;6.43;;;;;;;;;;5051682;28;20056;-70
2023/10/08 05:50:55;;;;;;;9.75;6.70;;;;;;;;;;5052014;28;20675;-70
2023/10/08 05:53:43;;;;;;;12.65;6.55;;;;;;;;;;5046773;28;20206;-70
2023/10/08 05:56:27;;;;;;;9.88;6.18;;;;;;;;;;5051389;28;20136;-70
2023/10/08 05:59:14;;;;;;;12.20;6.70;;;;;;;;;;5051531;28;20049;-70
2023/10/08 06:01:41;;;;;;;9.65;6.40;;;;;;;;;;5049036;28;20049;-70
2023/10/08 06:04:42;;;;;;;9.23;6.20;;;;;;;;;;5051580;28;20067;-70
2023/10/08 06:07:17;;;;;;;9.82;6.10;;;;;;;;;;5050566;28;20471;-70
2023/10/08 06:09:50;;;;;;;9.25;5.75;;;;;;;;;;5052119;28;20045;-70
2023/10/08 06:12:29;;;;;;;9.65;6.03;;;;;;;;;;5051178;28;20152;-70
2023/10/08 06:15:07;;;;;;;8.88;6.18;;;;;;;;;;5051313;28;20049;-70
2023/10/08 06:17:55;;;;;;;12.48;6.93;;;;;;;;;;5051322;28;20076;-70
2023/10/08 06:20:25;;;;;;;11.10;6.25;;;;;;;;;;5046123;28;20098;-70
2023/10/08 06:22:59;;;;;;;11.68;6.70;;;;;;;;;;5051298;28;20123;-70
2023/10/08 06:25:27;;;;;;;9.32;5.85;;;;;;;;;;5051226;28;20049;-70
2023/10/08 06:27:57;;;;;;;11.38;7.22;;;;;;;;;;5050822;28;20053;-70
2023/10/08 06:30:28;;;;;;;9.30;6.47;;;;;;;;;;5051412;28;20609;-70
2023/10/08 06:32:56;;;;;;;11.60;6.93;;;;;;;;;;5050905;28;20045;-70
2023/10/08 06:35:25;;;;;;;10.95;7.35;;;;;;;;;;5050528;28;20477;-70
2023/10/08 06:37:54;;;;;;;13.73;7.53;;;;;;;;;;5050742;28;20493;-70
2023/10/08 06:43:14;;;;;;;9.80;6.63;;;;;;;;;;5049784;28;20143;-70
2023/10/08 06:45:41;;;;;;;9.65;6.63;;;;;;;;;;5050806;28;20124;-70
2023/10/08 06:48:08;;;;;;;8.63;6.38;;;;;;;;;;5050750;28;20439;-70
2023/10/08 06:50:35;;;;;;;9.18;6.60;;;;;;;;;;5051072;28;20083;-70
2023/10/08 06:53:06;;;;;;;10.98;7.40;;;;;;;;;;5050654;28;20049;-70
2023/10/08 06:55:33;;;;;;;11.73;6.72;;;;;;;;;;5050909;28;20041;-70
2023/10/08 06:58:00;;;;;;;15.40;6.85;;;;;;;;;;5049841;28;20041;-70
2023/10/08 07:00:38;;;;;;;9.70;6.45;;;;;;;;;;5051165;28;20053;-70
2023/10/08 07:03:05;;;;;;;9.82;6.13;;;;;;;;;;5050757;28;20049;-70
2023/10/08 07:05:36;;;;;;;15.27;6.80;;;;;;;;;;5050903;28;20045;-70
2023/10/08 07:08:06;;;;;;;13.25;6.88;;;;;;;;;;5050242;28;20052;-70
2023/10/08 07:10:34;;;;;;;13.05;7.00;;;;;;;;;;5050777;28;20049;-70
2023/10/08 07:13:02;;;;;;;11.40;6.80;;;;;;;;;;5050268;28;20068;-70
2023/10/08 07:15:32;;;;;;;10.75;6.95;;;;;;;;;;5050922;28;20120;-70
2023/10/08 07:18:08;;;;;;;10.88;7.00;;;;;;;;;;5050024;28;20152;-70
2023/10/08 07:20:38;;;;;;;13.02;8.23;;;;;;;;;;5050495;28;20076;-70
2023/10/08 07:23:09;;;;;;;18.38;11.88;;;;;;;;;;5049123;28;20049;-70
2023/10/08 07:25:38;;;;;;;20.70;12.65;;;;;;;;;;5050566;28;20052;-70
2023/10/08 07:28:12;;;;;;;24.25;14.75;;;;;;;;;;5049194;28;20045;-70
2023/10/08 07:30:43;;;;;;;25.88;14.05;;;;;;;;;;5050928;28;20059;-70
2023/10/08 07:33:17;;;;;;;19.60;12.95;;;;;;;;;;5050517;28;20102;-70
2023/10/08 07:35:51;;;;;;;17.50;10.27;;;;;;;;;;5050479;28;20048;-70
2023/10/08 07:38:18;;;;;;;13.45;9.15;;;;;;;;;;5050284;28;20048;-70
2023/10/08 07:40:44;;;;;;;12.93;9.57;;;;;;;;;;5050767;28;20374;-70
2023/10/08 07:43:12;;;;;;;16.92;9.73;;;;;;;;;;5050566;28;20075;-70
2023/10/08 07:45:45;;;;;;;14.65;8.88;;;;;;;;;;5050595;28;20106;-71
2023/10/08 07:48:13;;;;;;;12.65;8.57;;;;;;;;;;5053833;28;20091;-70
2023/10/08 07:50:43;;;;;;;13.88;8.70;;;;;;;;;;5054292;28;20049;-70
2023/10/08 07:53:17;;;;;;;13.30;8.57;;;;;;;;;;5054356;28;20044;-70
2023/10/08 07:55:44;;;;;;;12.32;8.25;;;;;;;;;;5054313;28;20048;-70
2023/10/08 07:58:11;;;;;;;12.23;7.32;;;;;;;;;;5053804;28;20152;-70
2023/10/08 08:00:38;;;;;;;11.85;6.70;;;;;;;;;;5054205;28;20515;-70
2023/10/08 08:03:06;;;;;;;13.43;7.47;;;;;;;;;;5053102;28;20508;-70
2023/10/08 08:05:33;;;;;;;12.25;8.30;;;;;;;;;;5054280;28;20044;-70
2023/10/08 08:08:05;;;;;;;12.85;8.10;;;;;;;;;;5053834;28;20051;-70
2023/10/08 08:10:36;;;;;;;14.60;8.18;;;;;;;;;;5054713;28;20048;-70
2023/10/08 08:13:05;;;;;;;12.50;7.70;;;;;;;;;;5053354;28;20091;-70
2023/10/08 08:15:33;;;;;;;9.07;6.93;;;;;;;;;;5054160;28;20051;-70
2023/10/08 08:18:00;;;;;;;11.00;6.90;;;;;;;;;;5053691;28;20136;-70
2023/10/08 08:20:38;;;;;;;13.63;7.20;;;;;;;;;;5053819;28;20049;-70
2023/10/08 08:23:07;;;;;;;9.55;6.78;;;;;;;;;;5052517;28;20045;-70
2023/10/08 08:25:45;;;;;;;10.85;6.38;;;;;;;;;;5053601;28;20053;-70
2023/10/08 08:28:16;;;;;;;11.75;6.10;;;;;;;;;;5053018;28;20044;-70
2023/10/08 08:30:46;;;;;;;10.20;5.95;;;;;;;;;;5053672;28;20056;-70
2023/10/08 08:33:16;;;;;;;10.75;6.50;;;;;;;;;;5053445;28;20298;-70
2023/10/08 08:35:45;;;;;;;9.65;6.80;;;;;;;;;;5053503;28;20108;-70
2023/10/08 08:38:12;;;;;;;9.05;5.82;;;;;;;;;;5052770;28;20045;-70
2023/10/08 08:40:39;;;;;;;9.18;5.97;;;;;;;;;;5053617;28;20045;-70
2023/10/08 08:43:06;;;;;;;8.90;5.80;;;;;;;;;;5053431;28;20049;-70
2023/10/08 08:45:36;;;;;;;10.95;5.95;;;;;;;;;;5053475;28;20501;-70
2023/10/08 08:48:02;;;;;;;11.05;6.15;;;;;;;;;;5052676;28;20044;-70
2023/10/08 08:50:29;;;;;;;8.05;5.80;;;;;;;;;;5053254;28;20501;-71
2023/10/08 08:52:58;;;;;;;10.90;6.22;;;;;;;;;;5052796;28;20049;-70
2023/10/08 08:55:27;;;;;;;8.82;5.47;;;;;;;;;;5053570;28;20053;-70
2023/10/08 08:57:55;;;;;;;10.38;5.78;;;;;;;;;;5052381;28;20052;-70
2023/10/08 09:00:25;;;;;;;11.40;5.55;;;;;;;;;;5047501;28;20508;-70
2023/10/08 09:02:52;;;;;;;10.32;5.93;;;;;;;;;;5052804;28;20056;-70
2023/10/08 09:05:25;;;;;;;9.75;5.45;;;;;;;;;;5052787;28;20745;-70
2023/10/08 09:07:59;;;;;;;8.60;5.00;;;;;;;;;;5052925;28;20049;-70
2023/10/08 09:10:27;;;;;;;6.20;4.55;;;;;;;;;;5053232;28;20390;-70
2023/10/08 09:12:57;;;;;;;8.38;5.38;;;;;;;;;;5052713;28;20497;-70
2023/10/08 09:15:25;;;;;;;9.07;5.60;;;;;;;;;;5052836;28;20468;-70
2023/10/08 09:17:52;;;;;;;8.02;5.75;;;;;;;;;;5052811;28;20051;-71
2023/10/08 09:20:20;;;;;;;7.50;4.82;;;;;;;;;;5052945;28;20080;-71
2023/10/08 09:22:48;;;;;;;10.07;5.65;;;;;;;;;;5052606;28;20052;-70
2023/10/08 09:25:22;;;;;;;9.88;5.75;;;;;;;;;;5052791;28;20049;-70
2023/10/08 09:27:52;;;;;;;11.48;5.05;;;;;;;;;;5052356;28;20045;-70
2023/10/08 09:30:20;;;;;;;9.60;5.50;;;;;;;;;;5052471;28;20497;-70
2023/10/08 09:32:49;;;;;;;9.52;5.20;;;;;;;;;;5052670;28;20048;-71
2023/10/08 09:35:16;;;;;;;8.30;4.82;;;;;;;;;;5052520;28;20063;-70
2023/10/08 09:37:45;;;;;;;8.07;5.25;;;;;;;;;;5052057;28;20056;-70
2023/10/08 09:40:12;;;;;;;10.75;4.78;;;;;;;;;;5052272;28;20045;-70
2023/10/08 09:42:43;;;;;;;9.68;4.85;;;;;;;;;;5051850;28;20055;-70
2023/10/08 09:45:11;;;;;;;6.28;4.55;;;;;;;;;;5052302;28;20059;-70
2023/10/08 09:47:42;;;;;;;8.48;4.78;;;;;;;;;;5052197;28;20053;-71
2023/10/08 09:50:12;;;;;;;7.28;4.47;;;;;;;;;;5052297;28;20508;-70
2023/10/08 09:52:47;;;;;;;8.05;4.53;;;;;;;;;;5052072;28;20087;-71
2023/10/08 09:55:14;;;;;;;7.80;4.53;;;;;;;;;;5051811;28;20052;-70
2023/10/08 09:57:42;;;;;;;7.43;4.72;;;;;;;;;;5051540;28;20040;-70
2023/10/08 10:00:14;;;;;;;7.82;4.55;;;;;;;;;;5051849;28;20057;-71
2023/10/08 10:02:42;;;;;;;7.07;4.07;;;;;;;;;;5051759;28;20080;-70
2023/10/08 10:05:12;;;;;;;7.35;4.03;;;;;;;;;;5051692;28;20444;-71
2023/10/08 10:07:41;;;;;;;9.43;4.40;;;;;;;;;;5051238;28;20497;-71
2023/10/08 10:10:26;;;;;;;8.73;4.28;;;;;;;;;;5049853;28;20139;-70
2023/10/08 10:12:54;;;;;;;7.93;4.72;;;;;;;;;;5051442;28;20131;-70
2023/10/08 10:15:22;;;;;;;7.65;4.05;;;;;;;;;;5051852;28;20052;-70
2023/10/08 10:17:50;;;;;;;5.97;3.95;;;;;;;;;;5051032;28;20049;-71
2023/10/08 10:20:16;;;;;;;5.82;3.50;;;;;;;;;;5051109;28;20041;-70
2023/10/08 10:22:44;;;;;;;8.75;3.92;;;;;;;;;;5051447;28;20053;-71
2023/10/08 10:25:17;;;;;;;7.90;3.92;;;;;;;;;;5051484;28;20059;-71
2023/10/08 10:28:04;;;;;;;6.88;3.58;;;;;;;;;;5051292;28;20075;-70
2023/10/08 10:30:32;;;;;;;6.93;3.47;;;;;;;;;;5051214;28;20613;-71
2023/10/08 10:33:02;;;;;;;8.95;3.80;;;;;;;;;;5051338;28;20052;-71
2023/10/08 10:35:29;;;;;;;6.32;3.50;;;;;;;;;;5051457;28;20049;-71
2023/10/08 10:37:55;;;;;;;6.65;3.65;;;;;;;;;;5050806;28;20493;-71
2023/10/08 10:40:29;;;;;;;7.22;3.50;;;;;;;;;;5051382;28;20049;-70
2023/10/08 10:42:57;;;;;;;6.72;3.15;;;;;;;;;;5050802;28;20516;-71
2023/10/08 10:45:40;;;;;;;7.13;3.80;;;;;;;;;;5051319;28;20416;-71
2023/10/08 10:48:21;;;;;;;5.80;3.40;;;;;;;;;;5050910;28;20045;-71
2023/10/08 10:51:08;;;;;;;8.90;3.70;;;;;;;;;;5051470;28;20137;-71
2023/10/08 10:53:44;;;;;;;6.75;3.40;;;;;;;;;;5046809;28;20394;-71
2023/10/08 10:56:18;;;;;;;8.43;3.80;;;;;;;;;;5050563;28;20041;-71
2023/10/08 10:58:46;;;;;;;7.78;3.42;;;;;;;;;;5050654;28;20041;-70
2023/10/08 11:01:23;;;;;;;8.10;3.90;;;;;;;;;;5050793;28;20041;-71
2023/10/08 11:03:52;;;;;;;6.53;3.90;;;;;;;;;;5050845;28;20553;-71
2023/10/08 11:06:22;;;;;;;6.07;3.53;;;;;;;;;;5051564;28;20052;-71
2023/10/08 11:08:50;;;;;;;6.20;3.50;;;;;;;;;;5051077;28;20056;-71
2023/10/08 11:11:18;;;;;;;6.13;3.33;;;;;;;;;;5051147;28;20103;-71
2023/10/08 11:13:51;;;;;;;7.38;3.53;;;;;;;;;;5050879;28;20068;-70
2023/10/08 11:16:21;;;;;;;7.13;3.70;;;;;;;;;;5050749;28;20052;-71
2023/10/08 11:18:50;;;;;;;5.72;3.20;;;;;;;;;;5050462;28;20136;-71
2023/10/08 11:21:23;;;;;;;5.68;3.15;;;;;;;;;;5055917;28;20041;-71
2023/10/08 11:23:55;;;;;;;6.43;3.20;;;;;;;;;;5057178;28;20040;-70
2023/10/08 11:26:31;;;;;;;7.07;3.20;;;;;;;;;;5057442;28;20496;-71
2023/10/08 11:29:00;;;;;;;6.55;3.33;;;;;;;;;;5056673;28;20053;-70
2023/10/08 11:31:28;;;;;;;7.60;3.50;;;;;;;;;;5057636;28;20079;-71
2023/10/08 11:34:00;;;;;;;6.70;3.30;;;;;;;;;;5057180;28;20041;-70
2023/10/08 11:36:31;;;;;;;6.32;3.28;;;;;;;;;;5057802;28;20045;-71
2023/10/08 11:39:11;;;;;;;7.30;3.53;;;;;;;;;;5056637;28;20095;-71
2023/10/08 11:41:49;;;;;;;6.30;3.00;;;;;;;;;;5057366;28;20056;-70
2023/10/08 11:44:19;;;;;;;5.40;3.42;;;;;;;;;;5057401;28;20110;-70
2023/10/08 11:46:51;;;;;;;5.63;3.03;;;;;;;;;;5057275;28;20051;-70
2023/10/08 11:49:18;;;;;;;7.60;3.45;;;;;;;;;;5056373;28;20366;-71
2023/10/08 11:51:47;;;;;;;6.28;3.67;;;;;;;;;;5056947;28;20499;-71
2023/10/08 11:54:14;;;;;;;8.77;3.53;;;;;;;;;;5057736;28;20477;-71
2023/10/08 11:56:41;;;;;;;6.80;3.22;;;;;;;;;;5057145;28;20067;-71
2023/10/08 11:59:08;;;;;;;6.50;3.25;;;;;;;;;;5056468;28;20048;-71
2023/10/08 12:01:35;;;;;;;7.43;3.42;;;;;;;;;;5057187;28;20049;-71
2023/10/08 12:04:02;;;;;;;9.63;3.50;;;;;;;;;;5056643;28;20047;-71
2023/10/08 12:06:30;;;;;;;5.57;2.95;;;;;;;;;;5056904;28;20128;-71
2023/10/08 12:08:59;;;;;;;6.07;3.33;;;;;;;;;;5056721;28;20076;-71
2023/10/08 12:11:30;;;;;;;10.05;3.20;;;;;;;;;;5056973;28;20102;-71
2023/10/08 12:13:58;;;;;;;7.45;3.67;;;;;;;;;;5056377;28;20045;-71
2023/10/08 12:16:29;;;;;;;5.50;3.65;;;;;;;;;;5057106;28;20049;-71
2023/10/08 12:18:58;;;;;;;9.15;3.58;;;;;;;;;;5056153;28;20088;-71
2023/10/08 12:21:25;;;;;;;5.80;3.70;;;;;;;;;;5057148;28;20040;-71
2023/10/08 12:23:54;;;;;;;8.68;3.60;;;;;;;;;;5056635;28;20048;-71
2023/10/08 12:26:22;;;;;;;8.23;3.85;;;;;;;;;;5057160;28;20052;-71
2023/10/08 12:28:49;;;;;;;5.88;3.25;;;;;;;;;;5056587;28;20059;-71
2023/10/08 12:31:16;;;;;;;5.03;3.28;;;;;;;;;;5056110;28;20059;-71
2023/10/08 12:33:44;;;;;;;4.88;3.30;;;;;;;;;;5053086;28;20055;-71
2023/10/08 12:36:12;;;;;;;8.65;4.30;;;;;;;;;;5053599;28;20053;-71
2023/10/08 12:38:40;;;;;;;8.82;3.63;;;;;;;;;;5053544;28;20049;-71
2023/10/08 12:41:11;;;;;;;8.05;3.70;;;;;;;;;;5053490;28;20044;-71
2023/10/08 12:43:42;;;;;;;7.90;3.55;;;;;;;;;;5053044;28;20063;-71
2023/10/08 12:46:16;;;;;;;7.82;3.80;;;;;;;;;;5052911;28;20394;-71
2023/10/08 12:48:43;;;;;;;9.93;3.78;;;;;;;;;;5053022;28;20083;-71
2023/10/08 12:51:11;;;;;;;7.05;3.90;;;;;;;;;;5053083;28;20053;-71
2023/10/08 12:53:38;;;;;;;6.90;3.70;;;;;;;;;;5053349;28;20045;-71
2023/10/08 12:56:06;;;;;;;7.72;3.88;;;;;;;;;;5052134;28;20079;-71
2023/10/08 12:58:38;;;;;;;8.45;3.80;;;;;;;;;;5052624;28;20049;-71
2023/10/08 13:01:09;;;;;;;9.05;3.63;;;;;;;;;;5051741;28;20045;-71
2023/10/08 13:03:41;;;;;;;5.25;3.15;;;;;;;;;;5053389;28;20425;-71
2023/10/08 13:06:11;;;;;;;9.13;3.83;;;;;;;;;;5052949;28;20047;-71
2023/10/08 13:08:38;;;;;;;6.32;3.83;;;;;;;;;;5052967;28;20048;-71
2023/10/08 13:11:04;;;;;;;6.30;3.60;;;;;;;;;;5052588;28;20053;-71
2023/10/08 13:13:31;;;;;;;7.38;3.95;;;;;;;;;;5053097;28;20041;-71
2023/10/08 13:16:02;;;;;;;6.80;3.50;;;;;;;;;;5052843;28;20095;-71
2023/10/08 13:18:32;;;;;;;5.70;3.10;;;;;;;;;;5052836;28;20056;-71
2023/10/08 13:21:00;;;;;;;6.43;3.50;;;;;;;;;;5052406;28;20307;-72
2023/10/08 13:23:27;;;;;;;6.78;3.50;;;;;;;;;;5052556;28;20539;-71
2023/10/08 13:25:54;;;;;;;7.72;3.38;;;;;;;;;;5052523;28;20049;-71
2023/10/08 13:28:22;;;;;;;8.35;3.50;;;;;;;;;;5046424;28;20053;-72
2023/10/08 13:30:52;;;;;;;6.88;3.58;;;;;;;;;;5052482;28;20056;-71
2023/10/08 13:33:19;;;;;;;9.60;3.83;;;;;;;;;;5052331;28;20049;-72
2023/10/08 13:35:49;;;;;;;7.57;3.92;;;;;;;;;;5052259;28;20044;-72
2023/10/08 13:38:16;;;;;;;8.47;3.33;;;;;;;;;;5051901;28;20441;-71
2023/10/08 13:41:01;;;;;;;7.25;3.22;;;;;;;;;;5052446;28;20417;-72
2023/10/08 13:43:33;;;;;;;6.90;3.53;;;;;;;;;;5051474;28;20552;-71
2023/10/08 13:46:03;;;;;;;5.63;3.20;;;;;;;;;;5052126;28;20467;-70
2023/10/08 13:48:32;;;;;;;8.00;3.47;;;;;;;;;;5051816;28;20071;-69
2023/10/08 13:51:01;;;;;;;8.38;3.42;;;;;;;;;;5052114;28;20066;-69
2023/10/08 13:53:29;;;;;;;7.57;3.53;;;;;;;;;;5052173;28;20051;-72
2023/10/08 13:55:58;;;;;;;9.23;3.17;;;;;;;;;;5051935;28;20045;-70
2023/10/08 13:58:24;;;;;;;8.13;3.50;;;;;;;;;;5051899;28;20091;-70
2023/10/08 14:00:52;;;;;;;10.48;3.42;;;;;;;;;;5051804;28;20045;-70
2023/10/08 14:03:21;;;;;;;5.90;3.55;;;;;;;;;;5051731;28;20561;-70
2023/10/08 14:05:50;;;;;;;7.05;3.85;;;;;;;;;;5052065;28;20143;-70
2023/10/08 14:08:18;;;;;;;8.30;3.70;;;;;;;;;;5050971;28;20041;-70
2023/10/08 14:10:45;;;;;;;7.20;3.78;;;;;;;;;;5051504;28;20052;-70
2023/10/08 14:13:12;;;;;;;6.38;3.10;;;;;;;;;;5051434;28;20505;-70
2023/10/08 14:15:44;;;;;;;8.63;3.60;;;;;;;;;;5051452;28;20041;-70
2023/10/08 14:18:16;;;;;;;6.30;3.30;;;;;;;;;;5050679;28;20425;-70
2023/10/08 14:20:46;;;;;;;8.45;3.67;;;;;;;;;;5051594;28;20141;-70
2023/10/08 14:23:16;;;;;;;7.85;3.80;;;;;;;;;;5051466;28;20045;-70
2023/10/08 14:25:45;;;;;;;6.30;3.08;;;;;;;;;;5051505;28;20047;-71
2023/10/08 14:28:21;;;;;;;9.35;3.88;;;;;;;;;;5050970;28;20099;-70
2023/10/08 14:30:53;;;;;;;5.25;3.30;;;;;;;;;;5051557;28;20053;-70
2023/10/08 14:33:24;;;;;;;9.20;3.50;;;;;;;;;;5051335;28;20132;-70
2023/10/08 14:44:10;;;;;;;10.90;3.88;;;;;;;;;;5050168;28;20130;-70
2023/10/08 14:46:38;;;;;;;5.38;3.35;;;;;;;;;;5051413;28;20087;-70
2023/10/08 14:49:10;;;;;;;8.43;3.67;;;;;;;;;;5050642;28;20424;-70
2023/10/08 14:51:40;;;;;;;7.82;3.60;;;;;;;;;;5051167;28;20064;-70
2023/10/08 14:54:07;;;;;;;9.63;4.00;;;;;;;;;;5050741;28;20091;-70
2023/10/08 14:56:36;;;;;;;9.55;3.70;;;;;;;;;;5050841;28;20048;-70
2023/10/08 14:59:03;;;;;;;9.90;3.90;;;;;;;;;;5050422;28;20072;-70
2023/10/08 15:01:32;;;;;;;7.78;3.70;;;;;;;;;;5050730;28;20080;-70
2023/10/08 15:03:59;;;;;;;8.80;3.90;;;;;;;;;;5050857;28;20128;-70
2023/10/08 15:06:26;;;;;;;8.30;3.67;;;;;;;;;;5051066;28;20404;-70
2023/10/08 15:08:53;;;;;;;7.80;4.15;;;;;;;;;;5050525;28;20041;-70
2023/10/08 15:11:19;;;;;;;7.78;4.05;;;;;;;;;;5050792;28;20102;-70